Time;durP1;ratioP1;P1;durP2;ratioP2;P2;SDS_P1;SDS_P2;PMS_P1;PMS_P2;Temp;Humidity;BMP_temperature;BMP_pressure;BME280_temperature;BME280_humidity;BME280_pressure;Samples;Min_cycle;Max_cycle;Signal;HPM_P1;HPM_P2
2023/03/16 00:04:16;;;;;;;25.50;11.10;;;;;;;-1.64;100.00;100882.25;215779;1288;140021;-82
2023/03/16 00:09:16;;;;;;;27.50;11.70;;;;;;;-1.67;100.00;100891.88;215279;1292;139765;-82
2023/03/16 00:14:17;;;;;;;27.20;12.30;;;;;;;-1.70;100.00;100899.52;215692;1289;139608;-82
2023/03/16 00:19:17;;;;;;;30.40;12.00;;;;;;;-1.73;100.00;100900.62;214899;1294;139406;-81
2023/03/16 00:24:19;;;;;;;28.10;10.20;;;;;;;-1.76;100.00;100905.45;213825;1294;139383;-82
2023/03/16 00:29:21;;;;;;;26.90;10.50;;;;;;;-1.77;100.00;100906.44;213476;1292;139456;-82
2023/03/16 00:34:22;;;;;;;28.20;11.80;;;;;;;-1.79;100.00;100905.96;213992;1289;139123;-82
2023/03/16 00:39:22;;;;;;;29.10;11.70;;;;;;;-1.83;100.00;100901.70;213482;1288;139327;-81
2023/03/16 00:44:22;;;;;;;23.30;10.20;;;;;;;-1.88;100.00;100901.95;213997;1288;139220;-82
2023/03/16 00:49:23;;;;;;;21.90;9.40;;;;;;;-1.90;100.00;100901.06;213233;1293;139596;-82
2023/03/16 00:54:23;;;;;;;23.40;10.10;;;;;;;-1.93;100.00;100899.19;213838;1289;139010;-82
2023/03/16 00:59:25;;;;;;;19.40;7.10;;;;;;;-1.95;100.00;100905.14;213482;1288;139651;-81
2023/03/16 01:04:25;;;;;;;19.80;8.10;;;;;;;-1.97;100.00;100913.73;213737;1292;138831;-82
2023/03/16 01:09:26;;;;;;;16.80;6.70;;;;;;;-1.99;100.00;100922.02;213402;1289;139721;-82
2023/03/16 01:14:26;;;;;;;18.30;5.80;;;;;;;-2.01;100.00;100924.30;213927;1294;138997;-82
2023/03/16 01:19:27;;;;;;;19.70;6.80;;;;;;;-2.03;100.00;100925.60;213357;1288;139163;-82
2023/03/16 01:24:27;;;;;;;18.60;6.90;;;;;;;-2.07;100.00;100931.02;213852;1289;140023;-82
2023/03/16 01:29:28;;;;;;;16.00;7.50;;;;;;;-2.09;100.00;100934.16;213461;1288;139207;-82
2023/03/16 01:34:29;;;;;;;16.90;5.30;;;;;;;-2.11;100.00;100940.88;213893;1292;140305;-82
2023/03/16 01:39:29;;;;;;;15.30;5.90;;;;;;;-2.15;100.00;100940.46;213404;1289;139390;-81
2023/03/16 01:45:04;;;;;;;14.00;5.60;;;;;;;-2.18;100.00;100940.77;213937;1292;139024;-82
2023/03/16 01:50:06;;;;;;;13.70;5.10;;;;;;;-2.21;100.00;100946.50;213254;1294;139407;-82
2023/03/16 01:55:08;;;;;;;16.00;5.70;;;;;;;-2.22;100.00;100947.70;213901;1294;139004;-82
2023/03/16 02:00:30;;;;;;;13.10;4.10;;;;;;;-2.24;100.00;100947.54;213345;1289;140289;-82
2023/03/16 02:05:51;;;;;;;11.80;3.90;;;;;;;-2.22;100.00;100949.90;213277;1292;111360;-82
2023/03/16 02:10:55;;;;;;;10.90;4.30;;;;;;;-2.20;100.00;100953.22;213060;1294;139019;-81
2023/03/16 02:15:55;;;;;;;13.80;5.40;;;;;;;-2.14;100.00;100954.10;213777;1294;138997;-82
2023/03/16 02:21:24;;;;;;;14.10;4.90;;;;;;;-2.07;100.00;100954.32;213361;1292;139018;-82
2023/03/16 02:26:35;;;;;;;17.80;5.10;;;;;;;-1.95;100.00;100954.29;213157;1294;139654;-82
2023/03/16 02:31:35;;;;;;;12.10;4.70;;;;;;;-1.80;100.00;100961.27;213914;1289;139534;-82
2023/03/16 02:36:40;;;;;;;11.60;4.20;;;;;;;-1.66;100.00;100963.11;213306;1289;139688;-83
2023/03/16 02:41:41;;;;;;;13.20;5.00;;;;;;;-1.53;100.00;100962.02;213979;1293;97889;-83
2023/03/16 02:46:42;;;;;;;11.90;5.10;;;;;;;-1.46;100.00;100963.95;213374;1289;139492;-82
2023/03/16 02:51:45;;;;;;;13.50;5.40;;;;;;;-1.42;100.00;100968.92;213900;1289;139285;-83
2023/03/16 02:56:45;;;;;;;13.60;4.50;;;;;;;-1.40;100.00;100970.64;214019;1289;139471;-83
2023/03/16 03:01:46;;;;;;;13.70;4.70;;;;;;;-1.39;100.00;100976.95;213937;1292;139088;-82
2023/03/16 03:06:47;;;;;;;16.90;5.20;;;;;;;-1.40;100.00;100976.85;213288;1294;139633;-82
2023/03/16 03:11:47;;;;;;;12.70;4.40;;;;;;;-1.42;100.00;100974.65;214072;1289;97918;-82
2023/03/16 03:16:48;;;;;;;12.80;4.00;;;;;;;-1.44;100.00;100974.56;213362;1289;139225;-82
2023/03/16 03:21:49;;;;;;;14.40;4.80;;;;;;;-1.48;100.00;100975.25;213883;1293;139012;-82
2023/03/16 03:26:50;;;;;;;10.20;3.90;;;;;;;-1.52;100.00;100984.85;213323;1294;139812;-82
2023/03/16 03:31:51;;;;;;;11.50;4.30;;;;;;;-1.56;100.00;100986.92;213614;1290;139511;-82
2023/03/16 03:36:52;;;;;;;11.80;3.90;;;;;;;-1.60;100.00;100991.88;213317;1289;139252;-82
2023/03/16 03:41:53;;;;;;;12.60;4.40;;;;;;;-1.64;100.00;100986.30;213901;1289;112185;-82
2023/03/16 03:46:53;;;;;;;10.10;3.40;;;;;;;-1.65;100.00;100990.52;213127;1293;210598;-82
2023/03/16 03:51:55;;;;;;;12.90;4.20;;;;;;;-1.67;100.00;100991.60;213754;1289;138868;-82
2023/03/16 03:56:56;;;;;;;12.90;4.00;;;;;;;-1.68;100.00;100994.05;213333;1292;139628;-82
2023/03/16 04:01:56;;;;;;;13.80;4.60;;;;;;;-1.68;100.00;100996.53;213813;1290;139078;-82
2023/03/16 04:06:57;;;;;;;12.80;3.70;;;;;;;-1.71;100.00;100998.45;213310;1289;139699;-82
2023/03/16 04:11:59;;;;;;;11.00;3.50;;;;;;;-1.72;100.00;100996.30;214178;1290;289309;-82
2023/03/16 04:17:00;;;;;;;12.30;3.40;;;;;;;-1.75;100.00;100997.88;213651;1289;139709;-82
2023/03/16 04:22:00;;;;;;;9.40;3.60;;;;;;;-1.77;100.00;100995.30;213862;1293;139337;-82
2023/03/16 04:27:01;;;;;;;14.10;3.60;;;;;;;-1.79;100.00;101005.36;213200;1289;140040;-81
2023/03/16 04:32:02;;;;;;;15.70;3.40;;;;;;;-1.82;100.00;101009.16;213794;1289;139528;-83
2023/03/16 04:37:02;;;;;;;7.90;3.40;;;;;;;-1.86;100.00;101012.95;213186;1289;139937;-82
2023/03/16 04:42:03;;;;;;;10.40;3.50;;;;;;;-1.89;100.00;101012.77;213584;1290;138993;-82
2023/03/16 04:47:03;;;;;;;10.90;3.70;;;;;;;-1.92;100.00;101014.57;213283;1289;139271;-81
2023/03/16 04:52:04;;;;;;;12.70;3.80;;;;;;;-1.96;100.00;101022.05;213657;1294;138890;-82
2023/03/16 04:57:05;;;;;;;10.70;3.70;;;;;;;-2.00;100.00;101021.15;213243;1292;151798;-82
2023/03/16 05:02:05;;;;;;;9.60;2.90;;;;;;;-2.03;100.00;101018.27;213706;1295;139584;-82
2023/03/16 05:07:05;;;;;;;12.40;3.80;;;;;;;-2.06;100.00;101018.29;213323;1289;138876;-82
2023/03/16 05:12:06;;;;;;;9.70;3.40;;;;;;;-2.08;100.00;101020.94;213823;1289;139443;-82
2023/03/16 05:17:50;;;;;;;10.70;3.20;;;;;;;-2.12;100.00;101023.65;213592;1295;139090;-82
2023/03/16 05:22:50;;;;;;;10.50;3.30;;;;;;;-2.14;100.00;101030.47;214869;1294;138721;-80
2023/03/16 05:27:53;;;;;;;15.40;3.40;;;;;;;-2.17;100.00;101032.37;213203;1289;140011;-81
2023/03/16 05:32:56;;;;;;;12.70;4.10;;;;;;;-2.19;100.00;101034.91;213614;1294;139126;-81
2023/03/16 05:37:57;;;;;;;9.20;3.00;;;;;;;-2.18;100.00;101037.82;213496;1294;139571;-82
2023/03/16 05:42:59;;;;;;;14.80;4.10;;;;;;;-2.19;100.00;101037.45;213780;1289;139108;-80
2023/03/16 05:47:59;;;;;;;12.00;3.20;;;;;;;-2.20;100.00;101037.18;213292;1290;139751;-81
2023/03/16 05:53:00;;;;;;;16.10;5.00;;;;;;;-2.19;100.00;101041.00;213990;1295;97931;-82
2023/03/16 05:58:00;;;;;;;21.60;11.10;;;;;;;-2.18;100.00;101043.15;213366;1289;140493;-82
2023/03/16 06:03:00;;;;;;;22.00;8.10;;;;;;;-2.14;100.00;101047.39;213896;1292;139459;-82
2023/03/16 06:08:01;;;;;;;18.20;7.60;;;;;;;-2.06;100.00;101050.85;213373;1289;139433;-82
2023/03/16 06:13:01;;;;;;;29.20;10.80;;;;;;;-1.90;100.00;101054.21;213963;1292;139156;-83
2023/03/16 06:18:02;;;;;;;35.30;18.20;;;;;;;-1.75;100.00;101054.98;213518;1289;140395;-82
2023/03/16 06:23:03;;;;;;;44.10;26.50;;;;;;;-1.62;100.00;101058.49;214102;1288;106369;-81
2023/03/16 06:28:03;;;;;;;37.40;24.50;;;;;;;-1.48;100.00;101057.84;213406;1289;140830;-82
2023/03/16 06:33:04;;;;;;;95.40;41.20;;;;;;;-1.32;100.00;101059.08;214021;1294;139406;-83
2023/03/16 06:38:04;;;;;;;23.30;9.60;;;;;;;-1.15;100.00;101063.33;213479;1289;139415;-82
2023/03/16 06:43:05;;;;;;;25.90;12.70;;;;;;;-0.98;100.00;101064.03;215070;1289;139556;-82
2023/03/16 06:48:06;;;;;;;19.80;6.00;;;;;;;-0.80;100.00;101070.61;213372;1290;139904;-82
2023/03/16 06:53:06;;;;;;;16.80;5.40;;;;;;;-0.64;100.00;101073.41;214144;1289;99347;-83
2023/03/16 06:58:07;;;;;;;19.60;6.50;;;;;;;-0.48;100.00;101078.94;213440;1289;139128;-82
2023/03/16 07:03:07;;;;;;;17.10;5.50;;;;;;;-0.32;100.00;101084.39;214005;1289;138966;-83
2023/03/16 07:08:09;;;;;;;10.50;3.50;;;;;;;-0.16;100.00;101087.84;214649;1291;139842;-84
2023/03/16 07:13:09;;;;;;;15.30;5.00;;;;;;;0.01;100.00;101088.77;215304;1289;139573;-84
2023/03/16 07:18:11;;;;;;;15.30;4.40;;;;;;;0.17;100.00;101098.98;214559;1294;139046;-84
2023/03/16 07:23:11;;;;;;;12.20;3.70;;;;;;;0.35;100.00;101101.21;215198;1294;97950;-86
2023/03/16 07:28:11;;;;;;;16.70;3.90;;;;;;;0.55;100.00;101106.77;214616;1289;138747;-84
2023/03/16 07:33:12;;;;;;;14.10;4.50;;;;;;;0.73;100.00;101115.95;215398;1292;138916;-83
2023/03/16 07:38:13;;;;;;;23.20;8.10;;;;;;;0.87;100.00;101124.13;214884;1289;139007;-83
2023/03/16 07:43:13;;;;;;;20.00;5.60;;;;;;;1.00;100.00;101122.13;215132;1288;138780;-84
2023/03/16 07:48:13;;;;;;;10.30;4.10;;;;;;;1.14;100.00;101120.69;214806;1289;140287;-85
2023/03/16 07:53:14;;;;;;;21.90;6.20;;;;;;;1.29;100.00;101124.81;215371;1288;98431;-84
2023/03/16 07:58:15;;;;;;;13.90;3.20;;;;;;;1.46;100.00;101133.23;214646;1288;139250;-87
2023/03/16 08:03:15;;;;;;;15.30;3.30;;;;;;;1.62;100.00;101140.19;215353;1293;138744;-85
2023/03/16 08:08:16;;;;;;;10.50;3.40;;;;;;;1.79;100.00;101144.80;214918;1289;139432;-86
2023/03/16 08:13:17;;;;;;;11.80;2.80;;;;;;;1.95;100.00;101151.36;215245;1292;138650;-85
2023/03/16 08:18:18;;;;;;;13.70;4.50;;;;;;;2.20;100.00;101151.28;214758;1291;139341;-83
2023/03/16 08:23:18;;;;;;;14.80;4.10;;;;;;;2.46;100.00;101153.32;215039;1292;99272;-85
2023/03/16 08:28:20;;;;;;;14.90;3.50;;;;;;;2.70;100.00;101158.58;214544;1292;139181;-85
2023/03/16 08:33:20;;;;;;;27.20;10.00;;;;;;;2.93;100.00;101161.36;215419;1289;139176;-86
2023/03/16 08:38:21;;;;;;;16.90;5.00;;;;;;;3.13;100.00;101167.39;214886;1288;139778;-85
2023/03/16 08:43:22;;;;;;;15.50;4.30;;;;;;;3.33;100.00;101166.27;215307;1289;138864;-84
2023/03/16 08:48:23;;;;;;;15.00;5.50;;;;;;;3.54;100.00;101177.38;215117;1288;139568;-85
2023/03/16 08:53:23;;;;;;;12.30;4.00;;;;;;;3.73;100.00;101181.39;215396;1288;99253;-86
2023/03/16 08:58:24;;;;;;;13.00;3.80;;;;;;;3.84;100.00;101189.26;214709;1288;139626;-86
2023/03/16 09:03:26;;;;;;;11.30;3.70;;;;;;;3.89;100.00;101193.09;214992;1288;140783;-87
2023/03/16 09:08:27;;;;;;;15.30;4.50;;;;;;;4.00;100.00;101194.35;214818;1289;139389;-86
2023/03/16 09:13:29;;;;;;;14.80;4.60;;;;;;;4.13;100.00;101199.39;215436;1288;138851;-85
2023/03/16 09:18:31;;;;;;;16.10;5.10;;;;;;;4.33;100.00;101204.92;214708;1288;139083;-85
2023/03/16 09:23:33;;;;;;;13.00;3.10;;;;;;;4.63;99.22;101210.14;215298;1288;97927;-85
2023/03/16 09:28:37;;;;;;;9.80;3.30;;;;;;;4.79;97.15;101210.83;214586;1291;139536;-85
2023/03/16 09:33:38;;;;;;;10.10;3.70;;;;;;;4.92;96.64;101208.63;216263;1289;139107;-84
2023/03/16 09:38:43;;;;;;;9.20;3.20;;;;;;;5.10;95.61;101205.38;214789;1289;140456;-85
2023/03/16 09:44:16;;;;;;;8.90;3.10;;;;;;;5.31;96.20;101203.64;215553;1289;109807;-86
2023/03/16 09:49:19;;;;;;;8.20;3.30;;;;;;;5.72;95.88;101208.00;214550;1289;138860;-86
2023/03/16 09:54:31;;;;;;;12.60;3.80;;;;;;;6.26;96.89;101207.86;215155;1293;138761;-86
2023/03/16 09:59:31;;;;;;;12.40;3.60;;;;;;;6.78;93.63;101213.59;214772;1289;138226;-87
2023/03/16 10:04:44;;;;;;;9.60;2.70;;;;;;;6.94;92.20;101214.02;215241;1288;138595;-85
2023/03/16 10:09:55;;;;;;;14.00;3.40;;;;;;;7.39;91.39;101217.27;215927;1288;141130;-86
2023/03/16 10:15:06;;;;;;;9.90;3.10;;;;;;;7.81;89.83;101221.58;215724;1294;138804;-87
2023/03/16 10:20:16;;;;;;;11.70;3.80;;;;;;;8.22;90.16;101225.73;215310;1290;139213;-87
2023/03/16 10:25:54;;;;;;;7.80;3.60;;;;;;;8.95;89.61;101221.13;215796;1289;138615;-86
2023/03/16 10:30:59;;;;;;;10.80;3.30;;;;;;;9.73;87.52;101217.79;215099;1288;139299;-85
2023/03/16 10:36:11;;;;;;;9.60;2.80;;;;;;;10.10;83.93;101223.11;215659;1290;138839;-85
2023/03/16 10:41:19;;;;;;;10.60;2.20;;;;;;;10.22;80.59;101224.54;215424;1288;97938;-86
2023/03/16 10:46:19;;;;;;;10.00;3.40;;;;;;;10.28;79.60;101219.96;214812;1291;139308;-87
2023/03/16 10:51:25;;;;;;;7.80;2.20;;;;;;;10.31;77.95;101220.14;215491;1289;138984;-85
2023/03/16 10:56:31;;;;;;;8.20;2.30;;;;;;;10.31;76.56;101229.72;214845;1288;139186;-85
2023/03/16 11:01:32;;;;;;;;;;;;;;;10.33;75.06;101228.65;216201;1292;138883;-85
2023/03/16 11:06:33;;;;;;;7.00;2.10;;;;;;;10.48;73.33;101225.40;214958;1287;126039;-85
2023/03/16 11:11:35;;;;;;;7.10;2.40;;;;;;;10.33;72.48;101223.79;215354;1288;96766;-85
2023/03/16 11:16:45;;;;;;;10.50;2.10;;;;;;;10.09;72.17;101220.19;214873;1288;138423;-85
2023/03/16 11:22:02;;;;;;;9.40;2.30;;;;;;;10.08;71.82;101218.98;215133;1290;138992;-85
2023/03/16 11:27:11;;;;;;;6.30;1.70;;;;;;;10.22;70.05;101219.89;214572;1290;138950;-86
2023/03/16 11:32:19;;;;;;;6.60;2.40;;;;;;;10.35;70.64;101218.81;215352;1288;139381;-87
2023/03/16 11:37:44;;;;;;;7.20;1.80;;;;;;;10.54;70.16;101217.05;214713;1288;139417;-86
2023/03/16 11:42:55;;;;;;;5.60;2.10;;;;;;;10.75;69.53;101211.64;215181;1289;138708;-87
2023/03/16 11:48:23;;;;;;;6.70;1.80;;;;;;;10.82;68.41;101213.63;214731;1288;139488;-86
2023/03/16 11:53:43;;;;;;;6.70;1.90;;;;;;;10.88;68.16;101215.55;215304;1289;111189;-86
2023/03/16 11:59:02;;;;;;;6.40;2.00;;;;;;;11.04;67.73;101211.30;214436;1289;139160;-84
2023/03/16 12:04:27;;;;;;;5.90;1.80;;;;;;;11.09;66.51;101217.77;215010;1288;139845;-88
2023/03/16 12:09:50;;;;;;;5.10;1.30;;;;;;;11.03;65.88;101220.62;213996;1289;139309;-87
2023/03/16 12:15:05;;;;;;;10.10;2.00;;;;;;;10.75;64.17;101222.34;213922;1289;138952;-86
2023/03/16 12:20:22;;;;;;;7.90;1.90;;;;;;;10.55;64.74;101215.50;213637;1288;139327;-87
2023/03/16 12:25:28;;;;;;;6.80;1.60;;;;;;;10.48;65.03;101214.08;214099;1291;138284;-87
2023/03/16 12:30:44;;;;;;;10.60;2.00;;;;;;;10.30;64.37;101212.01;213567;1288;139234;-88
2023/03/16 12:35:54;;;;;;;4.80;1.80;;;;;;;10.20;64.23;101209.08;214205;1288;111581;-87
2023/03/16 12:41:04;;;;;;;8.70;2.00;;;;;;;10.20;65.44;101208.84;213872;1288;137979;-87
2023/03/16 12:46:21;;;;;;;5.60;1.60;;;;;;;10.10;63.60;101212.42;213535;1288;138791;-87
2023/03/16 12:51:37;;;;;;;6.60;1.50;;;;;;;9.90;63.15;101210.63;214131;1288;138219;-87
2023/03/16 12:56:46;;;;;;;8.10;2.40;;;;;;;9.78;63.45;101205.91;213456;1289;139177;-86
2023/03/16 13:01:55;;;;;;;8.00;1.50;;;;;;;9.78;64.40;101201.74;214068;1289;138252;-88
2023/03/16 13:07:08;;;;;;;6.20;1.60;;;;;;;9.89;64.19;101200.71;213927;1289;138554;-87
2023/03/16 13:12:22;;;;;;;6.00;1.60;;;;;;;9.91;63.35;101212.30;214829;1288;110832;-87
2023/03/16 13:17:28;;;;;;;4.50;1.50;;;;;;;9.82;63.47;101208.36;213919;1289;138288;-87
2023/03/16 13:22:44;;;;;;;;;;;;;;;9.65;62.93;101217.27;215705;1291;137917;-86
2023/03/16 13:27:48;;;;;;;6.30;1.60;;;;;;;9.49;62.27;101222.31;214066;1288;124487;-86
2023/03/16 13:33:05;;;;;;;6.60;1.70;;;;;;;9.36;62.59;101221.46;214158;1289;137851;-86
2023/03/16 13:38:15;;;;;;;5.10;1.60;;;;;;;9.25;61.50;101218.08;214130;1292;138587;-85
2023/03/16 13:43:18;;;;;;;4.80;2.00;;;;;;;9.16;61.92;101220.08;214155;1293;138563;-86
2023/03/16 13:48:19;;;;;;;5.10;1.40;;;;;;;9.13;62.10;101216.63;214142;1289;139143;-87
2023/03/16 13:53:31;;;;;;;4.30;1.30;;;;;;;9.01;61.97;101218.08;214950;1288;137399;-86
2023/03/16 13:58:36;;;;;;;8.60;1.90;;;;;;;8.93;62.09;101213.23;213796;1291;138779;-86
2023/03/16 14:03:40;;;;;;;8.30;1.60;;;;;;;8.94;60.90;101211.44;214317;1289;138627;-87
2023/03/16 14:08:47;;;;;;;5.40;1.20;;;;;;;8.88;60.17;101207.17;213810;1289;138296;-86
2023/03/16 14:13:55;;;;;;;6.90;1.80;;;;;;;8.78;61.33;101212.45;214457;1289;137738;-86
2023/03/16 14:19:07;;;;;;;8.00;1.60;;;;;;;8.77;62.18;101210.67;213865;1289;138587;-84
2023/03/16 14:24:35;;;;;;;6.90;1.90;;;;;;;8.67;59.97;101210.14;214088;1291;98002;-86
2023/03/16 14:29:36;;;;;;;8.30;2.30;;;;;;;8.58;61.02;101211.66;213906;1289;137765;-87
2023/03/16 14:34:40;;;;;;;5.70;1.90;;;;;;;8.46;61.21;101208.44;214266;1293;137806;-86
2023/03/16 14:39:41;;;;;;;7.60;1.70;;;;;;;8.47;61.21;101206.76;213703;1291;138136;-86
2023/03/16 14:44:43;;;;;;;12.20;4.00;;;;;;;8.49;61.71;101203.04;214286;1289;137812;-86
2023/03/16 14:49:43;;;;;;;6.00;2.30;;;;;;;8.49;61.24;101203.20;213520;1290;138508;-86
2023/03/16 14:54:44;;;;;;;8.30;2.10;;;;;;;8.46;61.99;101199.05;214012;1289;137863;-86
2023/03/16 14:59:45;;;;;;;8.50;2.40;;;;;;;8.40;61.67;101201.84;213632;1289;137254;-87
2023/03/16 15:04:47;;;;;;;5.10;1.80;;;;;;;8.37;62.39;101197.66;213992;1291;139921;-87
2023/03/16 15:09:49;;;;;;;3.60;1.40;;;;;;;8.26;62.27;101198.42;213535;1289;137675;-86
2023/03/16 15:20:19;;;;;;;7.20;1.50;;;;;;;8.23;64.26;101201.75;213515;1289;137766;-85
2023/03/16 15:25:59;;;;;;;5.80;1.30;;;;;;;8.18;63.65;101204.31;214238;1289;137716;-86
2023/03/16 15:31:01;;;;;;;7.50;1.50;;;;;;;8.06;63.42;101204.06;213170;1289;138341;-85
2023/03/16 15:36:12;;;;;;;15.50;6.00;;;;;;;7.97;64.33;101197.88;213920;1291;138102;-86
2023/03/16 15:41:13;;;;;;;154.60;73.30;;;;;;;7.80;63.21;101202.92;214324;1288;137641;-84
2023/03/16 15:46:14;;;;;;;23.40;9.50;;;;;;;7.49;62.86;101209.11;213601;1289;139067;-85
2023/03/16 15:51:22;;;;;;;30.60;12.20;;;;;;;7.24;63.36;101210.52;214133;1288;138305;-85
2023/03/16 15:56:28;;;;;;;43.30;14.20;;;;;;;7.08;63.44;101209.07;213886;1288;138485;-86
2023/03/16 16:01:32;;;;;;;;;;;;;;;6.94;63.90;101211.05;214112;1288;137912;-86
2023/03/16 16:06:33;;;;;;;43.30;21.20;;;;;;;6.83;64.56;101214.52;213798;1291;124121;-86
2023/03/16 16:11:33;;;;;;;14.40;5.40;;;;;;;6.69;64.70;101217.98;214144;1288;242636;-86
2023/03/16 16:16:35;;;;;;;32.60;15.50;;;;;;;6.58;64.98;101222.37;213600;1291;139205;-86
2023/03/16 16:21:36;;;;;;;9.70;3.30;;;;;;;6.42;64.26;101226.52;214231;1289;139866;-85
2023/03/16 16:26:47;;;;;;;14.40;5.50;;;;;;;6.27;64.34;101225.58;213756;1289;137788;-86
2023/03/16 16:31:50;;;;;;;22.70;9.50;;;;;;;6.14;64.41;101223.30;214494;1291;138901;-86
2023/03/16 16:36:51;;;;;;;15.70;5.50;;;;;;;5.99;64.53;101225.36;213996;1289;138701;-85
2023/03/16 16:41:54;;;;;;;15.00;6.70;;;;;;;5.90;66.24;101234.02;214058;1288;98117;-85
2023/03/16 16:46:54;;;;;;;15.30;6.30;;;;;;;5.77;66.07;101236.78;213714;1288;138026;-83
2023/03/16 16:51:55;;;;;;;15.80;5.70;;;;;;;5.59;67.54;101233.27;214121;1294;137724;-85
2023/03/16 16:56:58;;;;;;;40.60;17.20;;;;;;;5.45;68.44;101235.38;214568;1294;138430;-85
2023/03/16 17:02:02;;;;;;;34.30;13.30;;;;;;;5.34;69.13;101244.78;214276;1292;138299;-85
2023/03/16 17:07:05;;;;;;;35.60;13.70;;;;;;;5.15;69.82;101242.37;213742;1289;138915;-85
2023/03/16 17:12:15;;;;;;;37.50;14.10;;;;;;;4.92;70.63;101244.30;214477;1291;99296;-85
2023/03/16 17:17:16;;;;;;;63.90;27.80;;;;;;;4.76;71.96;101258.47;213568;1288;138791;-85
2023/03/16 17:22:25;;;;;;;44.50;19.00;;;;;;;4.56;72.45;101261.09;213909;1288;138982;-85
2023/03/16 17:27:30;;;;;;;48.50;20.60;;;;;;;4.37;73.72;101265.58;213342;1289;139108;-84
2023/03/16 17:32:30;;;;;;;44.20;19.60;;;;;;;4.20;74.00;101265.52;214136;1288;138694;-84
2023/03/16 17:37:31;;;;;;;56.20;24.10;;;;;;;4.01;74.92;101267.91;213381;1288;139204;-85
2023/03/16 17:42:31;;;;;;;136.90;47.40;;;;;;;3.83;75.46;101266.35;213841;1291;138742;-83
2023/03/16 17:47:37;;;;;;;150.20;52.00;;;;;;;3.66;76.18;101256.86;213471;1291;139468;-85
2023/03/16 17:52:38;;;;;;;198.70;61.20;;;;;;;3.46;76.96;101261.12;213964;1288;138860;-85
2023/03/16 17:57:40;;;;;;;800.60;282.10;;;;;;;3.31;77.31;101262.22;213674;1291;140069;-85
2023/03/16 18:02:54;;;;;;;910.50;317.50;;;;;;;3.19;77.80;101263.73;214220;1288;139098;-86
2023/03/16 18:07:58;;;;;;;597.60;194.80;;;;;;;3.08;78.11;101269.88;213849;1293;139652;-85
2023/03/16 18:13:03;;;;;;;379.70;113.90;;;;;;;2.92;78.85;101273.11;214235;1294;139790;-85
2023/03/16 18:18:06;;;;;;;156.10;54.80;;;;;;;2.76;79.33;101274.95;213723;1288;139491;-85
2023/03/16 18:23:25;;;;;;;110.70;42.30;;;;;;;2.57;79.86;101273.06;213807;1291;138905;-85
2023/03/16 18:28:27;;;;;;;67.30;24.90;;;;;;;2.46;80.41;101271.11;213271;1291;140844;-85
2023/03/16 18:33:33;;;;;;;50.10;19.80;;;;;;;2.39;80.46;101269.16;214168;1288;138678;-84
2023/03/16 18:38:41;;;;;;;43.20;18.90;;;;;;;2.29;80.99;101263.79;213720;1289;140169;-84
2023/03/16 18:43:42;;;;;;;49.30;21.80;;;;;;;2.24;81.47;101270.80;213916;1291;139127;-84
2023/03/16 18:48:42;;;;;;;64.10;28.30;;;;;;;2.18;81.62;101275.64;213366;1289;140402;-85
2023/03/16 18:54:25;;;;;;;74.20;28.20;;;;;;;2.09;82.12;101279.67;214461;1289;97945;-85
2023/03/16 18:59:26;;;;;;;91.40;36.10;;;;;;;1.99;82.68;101287.08;213518;1294;139350;-84
2023/03/16 19:04:31;;;;;;;122.90;52.00;;;;;;;1.87;83.07;101286.48;214617;1289;138736;-84
2023/03/16 19:09:32;;;;;;;87.10;36.70;;;;;;;1.80;83.32;101290.78;213467;1291;139374;-85
2023/03/16 19:14:33;;;;;;;87.00;35.40;;;;;;;1.70;83.61;101294.05;213836;1294;138804;-83
2023/03/16 19:19:34;;;;;;;64.80;28.00;;;;;;;1.63;84.12;101293.91;213934;1288;139556;-85
2023/03/16 19:24:43;;;;;;;104.90;45.90;;;;;;;1.54;84.10;101303.86;214017;1294;97934;-85
2023/03/16 19:29:44;;;;;;;106.10;42.60;;;;;;;1.47;84.74;101305.55;213790;1294;138949;-84
2023/03/16 19:34:45;;;;;;;77.70;36.90;;;;;;;1.39;84.82;101301.94;214527;1288;139092;-85
2023/03/16 19:39:46;;;;;;;57.20;33.00;;;;;;;1.36;84.92;101313.44;213463;1294;139587;-84
2023/03/16 19:44:49;;;;;;;47.40;25.10;;;;;;;1.29;85.81;101313.37;214252;1288;138878;-86
2023/03/16 19:49:49;;;;;;;45.10;20.60;;;;;;;1.24;85.74;101304.61;213526;1291;139028;-84
2023/03/16 19:54:50;;;;;;;41.60;20.50;;;;;;;1.16;85.91;101302.99;213966;1293;139731;-85
2023/03/16 19:59:55;;;;;;;36.70;17.60;;;;;;;1.11;86.12;101301.92;213510;1289;138510;-85
2023/03/16 20:04:56;;;;;;;39.50;17.90;;;;;;;1.05;86.40;101305.54;213939;1289;138704;-86
2023/03/16 20:09:56;;;;;;;50.60;23.10;;;;;;;0.99;86.75;101305.73;213212;1289;139515;-85
2023/03/16 20:14:58;;;;;;;43.00;19.70;;;;;;;0.94;86.95;101294.46;214044;1292;138636;-87
2023/03/16 20:19:59;;;;;;;40.40;20.30;;;;;;;0.89;87.05;101287.86;213257;1292;139037;-86
2023/03/16 20:25:04;;;;;;;45.50;21.80;;;;;;;0.84;87.16;101279.39;213785;1291;138885;-84
2023/03/16 20:30:14;;;;;;;50.60;21.00;;;;;;;0.78;87.33;101271.08;213901;1291;139243;-85
2023/03/16 20:35:26;;;;;;;47.10;20.90;;;;;;;0.72;87.55;101264.32;213794;1292;139790;-85
2023/03/16 20:40:27;;;;;;;47.30;21.00;;;;;;;0.68;87.93;101261.39;213399;1293;138567;-85
2023/03/16 20:45:29;;;;;;;50.20;21.30;;;;;;;0.65;88.15;101268.52;213941;1294;138862;-85
2023/03/16 20:50:29;;;;;;;45.10;21.90;;;;;;;0.62;88.30;101276.55;213631;1293;139265;-85
2023/03/16 20:55:30;;;;;;;55.20;22.70;;;;;;;0.60;88.62;101261.50;214391;1294;139106;-85
2023/03/16 21:00:36;;;;;;;52.90;23.30;;;;;;;0.59;88.84;101255.02;213434;1293;138958;-84
2023/03/16 21:05:36;;;;;;;51.90;24.20;;;;;;;0.57;88.72;101249.31;214067;1290;140347;-85
2023/03/16 21:10:37;;;;;;;49.80;22.30;;;;;;;0.55;88.93;101251.65;213441;1292;138795;-83
2023/03/16 21:15:38;;;;;;;109.40;40.10;;;;;;;0.55;88.88;101248.02;214043;1289;139593;-84
2023/03/16 21:20:48;;;;;;;97.50;40.80;;;;;;;0.57;89.48;101261.71;213621;1288;139173;-85
2023/03/16 21:25:57;;;;;;;57.40;25.40;;;;;;;0.60;89.47;101258.05;214428;1289;139058;-86
2023/03/16 21:30:58;;;;;;;70.00;31.00;;;;;;;0.60;90.20;101255.39;213976;1294;140092;-86
2023/03/16 21:36:00;;;;;;;56.20;23.00;;;;;;;0.63;89.96;101258.80;213804;1291;139131;-87
2023/03/16 21:41:01;;;;;;;52.90;23.70;;;;;;;0.64;90.41;101251.48;214080;1293;138756;-86
2023/03/16 21:46:03;;;;;;;51.90;24.60;;;;;;;0.64;90.24;101256.03;213644;1293;140457;-86
2023/03/16 21:51:21;;;;;;;60.00;26.20;;;;;;;0.63;90.86;101254.73;214052;1294;139306;-85
2023/03/16 21:56:24;;;;;;;92.90;42.70;;;;;;;0.64;90.50;101252.89;213513;1295;139531;-86
2023/03/16 22:01:29;;;;;;;50.00;23.00;;;;;;;0.61;90.89;101268.20;214371;1289;138745;-85
2023/03/16 22:06:30;;;;;;;78.60;32.00;;;;;;;0.62;91.22;101270.04;213735;1292;139067;-86
2023/03/16 22:11:30;;;;;;;62.50;26.50;;;;;;;0.60;91.21;101272.07;214143;1292;139246;-86
2023/03/16 22:16:34;;;;;;;38.80;18.50;;;;;;;0.59;91.40;101279.39;213594;1291;139439;-86
2023/03/16 22:21:40;;;;;;;32.70;14.60;;;;;;;0.59;91.75;101285.74;214899;1288;139291;-86
2023/03/16 22:26:41;;;;;;;29.00;13.50;;;;;;;0.58;91.80;101297.12;213938;1289;139565;-86
2023/03/16 22:31:41;;;;;;;33.80;16.90;;;;;;;0.56;91.98;101309.27;214749;1291;139409;-86
2023/03/16 22:36:42;;;;;;;38.20;18.80;;;;;;;0.55;92.19;101311.14;214005;1289;139768;-85
2023/03/16 22:41:42;;;;;;;39.10;16.50;;;;;;;0.54;92.55;101291.91;214562;1292;138550;-87
2023/03/16 22:46:43;;;;;;;33.40;13.70;;;;;;;0.56;92.05;101274.34;213904;1289;139215;-86
2023/03/16 22:51:43;;;;;;;31.30;14.00;;;;;;;0.61;92.26;101262.36;213820;1292;138815;-86
2023/03/16 22:56:46;;;;;;;33.20;13.10;;;;;;;0.70;92.56;101255.41;213214;1290;139113;-85